sensor_id;sensor_type;location;lat;lon;timestamp;temperature;humidity
51793;DHT22;37850;53.178;6.376;2022-09-16T00:01:36;11.70;99.90
51793;DHT22;37850;53.178;6.376;2022-09-16T00:04:02;11.70;99.90
51793;DHT22;37850;53.178;6.376;2022-09-16T00:06:28;11.70;99.90
51793;DHT22;37850;53.178;6.376;2022-09-16T00:08:55;11.70;99.90
51793;DHT22;37850;53.178;6.376;2022-09-16T00:11:22;11.70;99.90
51793;DHT22;37850;53.178;6.376;2022-09-16T00:13:48;11.70;99.90
51793;DHT22;37850;53.178;6.376;2022-09-16T00:16:23;11.70;99.90
51793;DHT22;37850;53.178;6.376;2022-09-16T00:18:53;11.70;99.90
51793;DHT22;37850;53.178;6.376;2022-09-16T00:21:19;11.80;99.90
51793;DHT22;37850;53.178;6.376;2022-09-16T00:23:44;11.70;99.90
51793;DHT22;37850;53.178;6.376;2022-09-16T00:26:10;11.70;99.90
51793;DHT22;37850;53.178;6.376;2022-09-16T00:28:36;11.70;99.90
51793;DHT22;37850;53.178;6.376;2022-09-16T00:31:02;11.70;99.90
51793;DHT22;37850;53.178;6.376;2022-09-16T00:33:28;11.70;99.90
51793;DHT22;37850;53.178;6.376;2022-09-16T00:36:15;11.70;99.90
51793;DHT22;37850;53.178;6.376;2022-09-16T00:38:41;11.70;99.90
51793;DHT22;37850;53.178;6.376;2022-09-16T00:41:11;11.70;99.90
51793;DHT22;37850;53.178;6.376;2022-09-16T00:44:00;11.70;99.90
51793;DHT22;37850;53.178;6.376;2022-09-16T00:46:31;11.70;99.90
51793;DHT22;37850;53.178;6.376;2022-09-16T00:49:16;11.70;99.90
51793;DHT22;37850;53.178;6.376;2022-09-16T00:51:44;11.70;99.90
51793;DHT22;37850;53.178;6.376;2022-09-16T00:54:13;11.70;99.90
51793;DHT22;37850;53.178;6.376;2022-09-16T00:56:43;11.80;99.90
51793;DHT22;37850;53.178;6.376;2022-09-16T00:59:14;11.70;99.90
51793;DHT22;37850;53.178;6.376;2022-09-16T01:01:42;11.70;99.90
51793;DHT22;37850;53.178;6.376;2022-09-16T01:04:24;11.80;99.90
51793;DHT22;37850;53.178;6.376;2022-09-16T01:06:51;11.70;99.90
51793;DHT22;37850;53.178;6.376;2022-09-16T01:09:18;11.70;99.90
51793;DHT22;37850;53.178;6.376;2022-09-16T01:11:45;11.70;99.90
51793;DHT22;37850;53.178;6.376;2022-09-16T01:14:12;11.70;99.90
51793;DHT22;37850;53.178;6.376;2022-09-16T01:17:12;11.70;99.90
51793;DHT22;37850;53.178;6.376;2022-09-16T01:27:49;11.50;99.90
51793;DHT22;37850;53.178;6.376;2022-09-16T01:30:17;11.50;99.90
51793;DHT22;37850;53.178;6.376;2022-09-16T01:43:40;11.50;99.90
51793;DHT22;37850;53.178;6.376;2022-09-16T01:49:21;11.40;99.90
51793;DHT22;37850;53.178;6.376;2022-09-16T01:55:09;11.40;99.90
51793;DHT22;37850;53.178;6.376;2022-09-16T02:00:36;11.30;99.90
51793;DHT22;37850;53.178;6.376;2022-09-16T02:03:10;11.30;99.90
51793;DHT22;37850;53.178;6.376;2022-09-16T02:08:17;11.30;99.90
51793;DHT22;37850;53.178;6.376;2022-09-16T02:10:46;11.30;99.90
51793;DHT22;37850;53.178;6.376;2022-09-16T02:13:39;11.30;99.90
51793;DHT22;37850;53.178;6.376;2022-09-16T02:16:23;11.30;99.90
51793;DHT22;37850;53.178;6.376;2022-09-16T02:18:53;11.30;99.90
51793;DHT22;37850;53.178;6.376;2022-09-16T02:21:23;11.30;99.90
51793;DHT22;37850;53.178;6.376;2022-09-16T02:23:54;11.30;99.90
51793;DHT22;37850;53.178;6.376;2022-09-16T02:26:28;11.20;99.90
51793;DHT22;37850;53.178;6.376;2022-09-16T02:28:55;11.30;99.90
51793;DHT22;37850;53.178;6.376;2022-09-16T02:31:25;11.20;99.90
51793;DHT22;37850;53.178;6.376;2022-09-16T02:33:55;11.20;99.90
51793;DHT22;37850;53.178;6.376;2022-09-16T02:36:24;11.30;99.90
51793;DHT22;37850;53.178;6.376;2022-09-16T02:38:58;11.20;99.90
51793;DHT22;37850;53.178;6.376;2022-09-16T02:41:26;11.20;99.90
51793;DHT22;37850;53.178;6.376;2022-09-16T02:43:53;11.20;99.90
51793;DHT22;37850;53.178;6.376;2022-09-16T02:46:53;11.20;99.90
51793;DHT22;37850;53.178;6.376;2022-09-16T02:49:33;11.20;99.90
51793;DHT22;37850;53.178;6.376;2022-09-16T02:57:29;11.20;99.90
51793;DHT22;37850;53.178;6.376;2022-09-16T02:59:55;11.10;99.90
51793;DHT22;37850;53.178;6.376;2022-09-16T03:02:21;11.20;99.90
51793;DHT22;37850;53.178;6.376;2022-09-16T03:04:47;11.20;99.90
51793;DHT22;37850;53.178;6.376;2022-09-16T03:07:13;11.10;99.90
51793;DHT22;37850;53.178;6.376;2022-09-16T03:09:42;11.10;99.90
51793;DHT22;37850;53.178;6.376;2022-09-16T03:12:42;11.20;99.90
51793;DHT22;37850;53.178;6.376;2022-09-16T03:15:16;11.10;99.90
51793;DHT22;37850;53.178;6.376;2022-09-16T03:20:46;11.00;99.90
51793;DHT22;37850;53.178;6.376;2022-09-16T03:32:09;10.90;99.90
51793;DHT22;37850;53.178;6.376;2022-09-16T03:35:29;10.90;99.90
51793;DHT22;37850;53.178;6.376;2022-09-16T03:37:54;10.80;99.90
51793;DHT22;37850;53.178;6.376;2022-09-16T03:40:21;10.80;99.90
51793;DHT22;37850;53.178;6.376;2022-09-16T03:42:47;10.80;99.90
51793;DHT22;37850;53.178;6.376;2022-09-16T03:45:16;10.80;99.90
51793;DHT22;37850;53.178;6.376;2022-09-16T03:47:43;10.80;99.90
51793;DHT22;37850;53.178;6.376;2022-09-16T03:50:10;10.70;99.90
51793;DHT22;37850;53.178;6.376;2022-09-16T03:52:36;10.70;99.90
51793;DHT22;37850;53.178;6.376;2022-09-16T03:55:02;10.70;99.90
51793;DHT22;37850;53.178;6.376;2022-09-16T03:57:28;10.70;99.90
51793;DHT22;37850;53.178;6.376;2022-09-16T03:59:55;10.70;99.90
51793;DHT22;37850;53.178;6.376;2022-09-16T04:02:20;10.70;99.90
51793;DHT22;37850;53.178;6.376;2022-09-16T04:04:46;10.70;99.90
51793;DHT22;37850;53.178;6.376;2022-09-16T04:07:12;10.70;99.90
51793;DHT22;37850;53.178;6.376;2022-09-16T04:09:37;10.60;99.90
51793;DHT22;37850;53.178;6.376;2022-09-16T04:12:03;10.60;99.90
51793;DHT22;37850;53.178;6.376;2022-09-16T04:14:32;10.60;99.90
51793;DHT22;37850;53.178;6.376;2022-09-16T04:16:58;10.60;99.90
51793;DHT22;37850;53.178;6.376;2022-09-16T04:19:24;10.80;99.90
51793;DHT22;37850;53.178;6.376;2022-09-16T04:21:49;10.90;99.90
51793;DHT22;37850;53.178;6.376;2022-09-16T04:24:15;10.50;99.90
51793;DHT22;37850;53.178;6.376;2022-09-16T04:26:42;10.50;99.90
51793;DHT22;37850;53.178;6.376;2022-09-16T04:29:08;10.50;99.90
51793;DHT22;37850;53.178;6.376;2022-09-16T04:31:34;10.50;99.90
51793;DHT22;37850;53.178;6.376;2022-09-16T04:34:03;10.50;99.90
51793;DHT22;37850;53.178;6.376;2022-09-16T04:36:30;10.50;99.90
51793;DHT22;37850;53.178;6.376;2022-09-16T04:38:59;10.50;99.90
51793;DHT22;37850;53.178;6.376;2022-09-16T04:41:25;10.40;99.90
51793;DHT22;37850;53.178;6.376;2022-09-16T04:43:54;10.40;99.90
51793;DHT22;37850;53.178;6.376;2022-09-16T04:46:24;10.70;99.90
51793;DHT22;37850;53.178;6.376;2022-09-16T04:48:51;10.40;99.90
51793;DHT22;37850;53.178;6.376;2022-09-16T04:51:18;10.40;99.90
51793;DHT22;37850;53.178;6.376;2022-09-16T04:53:45;10.70;99.90
51793;DHT22;37850;53.178;6.376;2022-09-16T04:58:50;10.40;99.90
51793;DHT22;37850;53.178;6.376;2022-09-16T05:01:23;10.40;99.90
51793;DHT22;37850;53.178;6.376;2022-09-16T05:03:54;10.60;99.90
51793;DHT22;37850;53.178;6.376;2022-09-16T05:06:21;10.30;99.90
51793;DHT22;37850;53.178;6.376;2022-09-16T05:08:48;10.30;99.90
51793;DHT22;37850;53.178;6.376;2022-09-16T05:11:20;10.30;99.90
51793;DHT22;37850;53.178;6.376;2022-09-16T05:13:46;10.30;99.90
51793;DHT22;37850;53.178;6.376;2022-09-16T05:16:15;10.20;99.90
51793;DHT22;37850;53.178;6.376;2022-09-16T05:18:42;10.30;99.90
51793;DHT22;37850;53.178;6.376;2022-09-16T05:21:10;10.20;99.90
51793;DHT22;37850;53.178;6.376;2022-09-16T05:23:36;10.20;99.90
51793;DHT22;37850;53.178;6.376;2022-09-16T05:26:11;10.10;99.90
51793;DHT22;37850;53.178;6.376;2022-09-16T05:28:37;10.10;99.90
51793;DHT22;37850;53.178;6.376;2022-09-16T05:31:14;10.10;99.90
51793;DHT22;37850;53.178;6.376;2022-09-16T05:33:42;10.10;99.90
51793;DHT22;37850;53.178;6.376;2022-09-16T05:36:10;10.10;99.90
51793;DHT22;37850;53.178;6.376;2022-09-16T05:38:37;10.10;99.90
51793;DHT22;37850;53.178;6.376;2022-09-16T05:41:04;10.10;99.90
51793;DHT22;37850;53.178;6.376;2022-09-16T05:43:30;10.10;99.90
51793;DHT22;37850;53.178;6.376;2022-09-16T05:45:56;10.10;99.90
51793;DHT22;37850;53.178;6.376;2022-09-16T05:48:22;10.10;99.90
51793;DHT22;37850;53.178;6.376;2022-09-16T05:51:00;10.50;99.90
51793;DHT22;37850;53.178;6.376;2022-09-16T05:53:28;10.10;99.90
51793;DHT22;37850;53.178;6.376;2022-09-16T05:55:55;10.20;99.90
51793;DHT22;37850;53.178;6.376;2022-09-16T05:58:22;10.30;99.90
51793;DHT22;37850;53.178;6.376;2022-09-16T06:00:48;10.40;99.90
51793;DHT22;37850;53.178;6.376;2022-09-16T06:03:13;10.90;99.90
51793;DHT22;37850;53.178;6.376;2022-09-16T06:05:40;10.80;99.90
51793;DHT22;37850;53.178;6.376;2022-09-16T06:08:05;10.80;99.90
51793;DHT22;37850;53.178;6.376;2022-09-16T06:10:31;10.80;99.90
51793;DHT22;37850;53.178;6.376;2022-09-16T06:13:01;10.80;99.90
51793;DHT22;37850;53.178;6.376;2022-09-16T06:15:27;10.80;99.90
51793;DHT22;37850;53.178;6.376;2022-09-16T06:17:53;10.80;99.90
51793;DHT22;37850;53.178;6.376;2022-09-16T06:20:19;10.80;99.90
51793;DHT22;37850;53.178;6.376;2022-09-16T06:22:45;10.80;99.90
51793;DHT22;37850;53.178;6.376;2022-09-16T06:25:11;10.80;99.90
51793;DHT22;37850;53.178;6.376;2022-09-16T06:27:36;10.80;99.90
51793;DHT22;37850;53.178;6.376;2022-09-16T06:30:03;10.80;99.90
51793;DHT22;37850;53.178;6.376;2022-09-16T06:32:32;10.80;99.90
51793;DHT22;37850;53.178;6.376;2022-09-16T06:34:58;10.90;99.90
51793;DHT22;37850;53.178;6.376;2022-09-16T06:37:24;10.90;99.90
51793;DHT22;37850;53.178;6.376;2022-09-16T06:39:50;10.90;99.90
51793;DHT22;37850;53.178;6.376;2022-09-16T06:42:16;11.00;99.90
51793;DHT22;37850;53.178;6.376;2022-09-16T06:44:42;11.10;99.90
51793;DHT22;37850;53.178;6.376;2022-09-16T06:47:08;11.10;99.90
51793;DHT22;37850;53.178;6.376;2022-09-16T06:49:34;11.40;99.90
51793;DHT22;37850;53.178;6.376;2022-09-16T06:52:02;11.20;99.90
51793;DHT22;37850;53.178;6.376;2022-09-16T06:54:28;11.30;99.90
51793;DHT22;37850;53.178;6.376;2022-09-16T06:56:53;11.30;99.90
51793;DHT22;37850;53.178;6.376;2022-09-16T06:59:19;11.70;99.90
51793;DHT22;37850;53.178;6.376;2022-09-16T07:01:45;11.50;99.90
51793;DHT22;37850;53.178;6.376;2022-09-16T07:04:10;11.60;99.90
51793;DHT22;37850;53.178;6.376;2022-09-16T07:06:38;11.70;99.90
51793;DHT22;37850;53.178;6.376;2022-09-16T07:09:04;11.80;99.90
51793;DHT22;37850;53.178;6.376;2022-09-16T07:11:30;11.90;99.90
51793;DHT22;37850;53.178;6.376;2022-09-16T07:13:55;11.80;99.90
51793;DHT22;37850;53.178;6.376;2022-09-16T07:16:24;11.80;99.90
51793;DHT22;37850;53.178;6.376;2022-09-16T07:18:54;11.90;99.90
51793;DHT22;37850;53.178;6.376;2022-09-16T07:21:23;12.10;99.90
51793;DHT22;37850;53.178;6.376;2022-09-16T07:23:50;12.20;99.90
51793;DHT22;37850;53.178;6.376;2022-09-16T07:26:18;12.40;99.90
51793;DHT22;37850;53.178;6.376;2022-09-16T07:28:46;12.60;99.90
51793;DHT22;37850;53.178;6.376;2022-09-16T07:31:17;12.80;99.90
51793;DHT22;37850;53.178;6.376;2022-09-16T07:33:45;13.00;99.90
51793;DHT22;37850;53.178;6.376;2022-09-16T07:36:14;13.30;99.90
51793;DHT22;37850;53.178;6.376;2022-09-16T07:38:41;13.40;99.90
51793;DHT22;37850;53.178;6.376;2022-09-16T07:41:18;13.50;99.90
51793;DHT22;37850;53.178;6.376;2022-09-16T07:43:45;13.50;99.90
51793;DHT22;37850;53.178;6.376;2022-09-16T07:46:13;13.40;99.90
51793;DHT22;37850;53.178;6.376;2022-09-16T07:48:41;13.30;99.90
51793;DHT22;37850;53.178;6.376;2022-09-16T07:51:09;13.30;99.90
51793;DHT22;37850;53.178;6.376;2022-09-16T07:53:37;13.30;99.90
51793;DHT22;37850;53.178;6.376;2022-09-16T07:56:04;13.30;99.90
51793;DHT22;37850;53.178;6.376;2022-09-16T07:58:30;13.20;99.90
51793;DHT22;37850;53.178;6.376;2022-09-16T08:00:57;13.20;99.90
51793;DHT22;37850;53.178;6.376;2022-09-16T08:03:23;13.20;99.90
51793;DHT22;37850;53.178;6.376;2022-09-16T08:05:49;13.10;99.90
51793;DHT22;37850;53.178;6.376;2022-09-16T08:08:15;13.40;99.90
51793;DHT22;37850;53.178;6.376;2022-09-16T08:10:41;13.30;99.90
51793;DHT22;37850;53.178;6.376;2022-09-16T08:13:07;13.40;99.90
51793;DHT22;37850;53.178;6.376;2022-09-16T08:15:33;13.60;99.90
51793;DHT22;37850;53.178;6.376;2022-09-16T08:17:59;13.70;99.90
51793;DHT22;37850;53.178;6.376;2022-09-16T08:20:25;13.90;99.90
51793;DHT22;37850;53.178;6.376;2022-09-16T08:22:51;14.00;99.90
51793;DHT22;37850;53.178;6.376;2022-09-16T08:25:17;14.10;99.90
51793;DHT22;37850;53.178;6.376;2022-09-16T08:27:43;14.30;99.90
51793;DHT22;37850;53.178;6.376;2022-09-16T08:30:10;14.40;99.90
51793;DHT22;37850;53.178;6.376;2022-09-16T08:32:36;14.50;99.90
51793;DHT22;37850;53.178;6.376;2022-09-16T08:35:02;14.60;99.90
51793;DHT22;37850;53.178;6.376;2022-09-16T08:37:28;14.70;99.90
51793;DHT22;37850;53.178;6.376;2022-09-16T08:39:53;14.80;99.90
51793;DHT22;37850;53.178;6.376;2022-09-16T08:45:05;15.00;99.90
51793;DHT22;37850;53.178;6.376;2022-09-16T08:47:38;15.10;99.90
51793;DHT22;37850;53.178;6.376;2022-09-16T08:50:16;15.20;99.90
51793;DHT22;37850;53.178;6.376;2022-09-16T08:52:43;15.30;99.90
51793;DHT22;37850;53.178;6.376;2022-09-16T08:55:23;15.30;99.90
51793;DHT22;37850;53.178;6.376;2022-09-16T08:58:03;15.40;99.90
51793;DHT22;37850;53.178;6.376;2022-09-16T09:00:31;15.40;99.90
51793;DHT22;37850;53.178;6.376;2022-09-16T09:03:09;15.50;99.90
51793;DHT22;37850;53.178;6.376;2022-09-16T09:11:14;15.50;99.90
51793;DHT22;37850;53.178;6.376;2022-09-16T09:17:03;15.60;99.90
51793;DHT22;37850;53.178;6.376;2022-09-16T09:22:26;15.70;99.90
51793;DHT22;37850;53.178;6.376;2022-09-16T09:25:19;15.70;99.90
51793;DHT22;37850;53.178;6.376;2022-09-16T09:42:06;15.60;99.90
51793;DHT22;37850;53.178;6.376;2022-09-16T09:47:29;15.70;99.90
51793;DHT22;37850;53.178;6.376;2022-09-16T09:50:00;15.70;99.90
51793;DHT22;37850;53.178;6.376;2022-09-16T09:52:37;15.80;99.90
51793;DHT22;37850;53.178;6.376;2022-09-16T09:55:19;15.80;99.90
51793;DHT22;37850;53.178;6.376;2022-09-16T09:58:03;15.90;99.90
51793;DHT22;37850;53.178;6.376;2022-09-16T10:00:31;15.90;99.90
51793;DHT22;37850;53.178;6.376;2022-09-16T10:03:16;15.90;99.90
51793;DHT22;37850;53.178;6.376;2022-09-16T10:05:44;15.90;99.90
51793;DHT22;37850;53.178;6.376;2022-09-16T10:08:18;15.90;99.90
51793;DHT22;37850;53.178;6.376;2022-09-16T10:11:13;15.80;99.90
51793;DHT22;37850;53.178;6.376;2022-09-16T10:13:53;15.70;99.90
51793;DHT22;37850;53.178;6.376;2022-09-16T10:16:23;15.70;99.90
51793;DHT22;37850;53.178;6.376;2022-09-16T10:19:17;15.70;99.90
51793;DHT22;37850;53.178;6.376;2022-09-16T10:21:49;15.80;99.90
51793;DHT22;37850;53.178;6.376;2022-09-16T10:24:33;15.90;99.90
51793;DHT22;37850;53.178;6.376;2022-09-16T10:27:15;15.90;99.90
51793;DHT22;37850;53.178;6.376;2022-09-16T10:29:42;16.10;99.90
51793;DHT22;37850;53.178;6.376;2022-09-16T10:32:10;16.10;99.90
51793;DHT22;37850;53.178;6.376;2022-09-16T10:34:39;16.10;99.90
51793;DHT22;37850;53.178;6.376;2022-09-16T10:39:51;16.10;99.90
51793;DHT22;37850;53.178;6.376;2022-09-16T10:42:22;15.90;99.90
51793;DHT22;37850;53.178;6.376;2022-09-16T10:44:51;15.80;99.90
51793;DHT22;37850;53.178;6.376;2022-09-16T10:49:49;15.90;99.90
51793;DHT22;37850;53.178;6.376;2022-09-16T10:52:26;15.90;99.90
51793;DHT22;37850;53.178;6.376;2022-09-16T10:54:53;15.90;99.90
51793;DHT22;37850;53.178;6.376;2022-09-16T10:57:26;15.90;99.90
51793;DHT22;37850;53.178;6.376;2022-09-16T11:05:25;16.10;99.90
51793;DHT22;37850;53.178;6.376;2022-09-16T11:08:15;16.20;99.90
51793;DHT22;37850;53.178;6.376;2022-09-16T11:10:44;16.30;99.90
51793;DHT22;37850;53.178;6.376;2022-09-16T11:16:28;16.40;99.90
51793;DHT22;37850;53.178;6.376;2022-09-16T11:30:20;16.50;99.90
51793;DHT22;37850;53.178;6.376;2022-09-16T11:38:33;16.60;99.90
51793;DHT22;37850;53.178;6.376;2022-09-16T11:41:18;16.60;99.90
51793;DHT22;37850;53.178;6.376;2022-09-16T11:52:00;16.70;99.90
51793;DHT22;37850;53.178;6.376;2022-09-16T11:55:01;16.70;99.90
51793;DHT22;37850;53.178;6.376;2022-09-16T11:57:27;16.70;99.90
51793;DHT22;37850;53.178;6.376;2022-09-16T12:00:03;16.70;99.90
51793;DHT22;37850;53.178;6.376;2022-09-16T12:02:59;16.70;99.90
51793;DHT22;37850;53.178;6.376;2022-09-16T12:05:33;16.80;99.90
51793;DHT22;37850;53.178;6.376;2022-09-16T12:08:11;16.90;99.90
51793;DHT22;37850;53.178;6.376;2022-09-16T12:10:50;16.90;99.90
51793;DHT22;37850;53.178;6.376;2022-09-16T12:15:55;17.00;99.90
51793;DHT22;37850;53.178;6.376;2022-09-16T12:18:27;17.00;99.90
51793;DHT22;37850;53.178;6.376;2022-09-16T12:21:21;17.10;99.90
51793;DHT22;37850;53.178;6.376;2022-09-16T12:24:04;17.00;99.90
51793;DHT22;37850;53.178;6.376;2022-09-16T12:26:41;17.00;99.90
51793;DHT22;37850;53.178;6.376;2022-09-16T12:31:48;16.80;99.90
51793;DHT22;37850;53.178;6.376;2022-09-16T12:34:23;16.80;99.90
51793;DHT22;37850;53.178;6.376;2022-09-16T12:36:59;16.70;99.90
51793;DHT22;37850;53.178;6.376;2022-09-16T12:39:25;16.70;99.90
51793;DHT22;37850;53.178;6.376;2022-09-16T12:42:06;16.70;99.90
51793;DHT22;37850;53.178;6.376;2022-09-16T12:53:38;16.50;99.90
51793;DHT22;37850;53.178;6.376;2022-09-16T12:56:26;16.50;99.90
51793;DHT22;37850;53.178;6.376;2022-09-16T13:02:02;16.50;99.90
51793;DHT22;37850;53.178;6.376;2022-09-16T13:04:50;16.40;99.90
51793;DHT22;37850;53.178;6.376;2022-09-16T13:07:36;16.30;99.90
51793;DHT22;37850;53.178;6.376;2022-09-16T13:10:18;16.30;99.90
51793;DHT22;37850;53.178;6.376;2022-09-16T13:12:53;16.20;99.90
51793;DHT22;37850;53.178;6.376;2022-09-16T13:15:26;16.20;99.90
51793;DHT22;37850;53.178;6.376;2022-09-16T13:17:53;16.20;99.90
51793;DHT22;37850;53.178;6.376;2022-09-16T13:20:28;16.10;99.90
51793;DHT22;37850;53.178;6.376;2022-09-16T13:23:26;16.10;99.90
51793;DHT22;37850;53.178;6.376;2022-09-16T13:26:03;15.90;99.90
51793;DHT22;37850;53.178;6.376;2022-09-16T13:36:16;15.40;99.90
51793;DHT22;37850;53.178;6.376;2022-09-16T13:39:03;15.30;99.90
51793;DHT22;37850;53.178;6.376;2022-09-16T13:41:45;15.20;99.90
51793;DHT22;37850;53.178;6.376;2022-09-16T13:50:01;15.00;99.90
51793;DHT22;37850;53.178;6.376;2022-09-16T13:52:32;14.80;99.90
51793;DHT22;37850;53.178;6.376;2022-09-16T13:55:03;14.70;99.90
51793;DHT22;37850;53.178;6.376;2022-09-16T14:00:28;14.60;99.90
51793;DHT22;37850;53.178;6.376;2022-09-16T14:03:12;14.50;99.90
51793;DHT22;37850;53.178;6.376;2022-09-16T14:05:53;14.50;99.90
51793;DHT22;37850;53.178;6.376;2022-09-16T14:08:31;14.50;99.90
51793;DHT22;37850;53.178;6.376;2022-09-16T14:14:18;14.50;99.90
51793;DHT22;37850;53.178;6.376;2022-09-16T14:16:47;14.50;99.90
51793;DHT22;37850;53.178;6.376;2022-09-16T14:21:45;14.60;99.90
51793;DHT22;37850;53.178;6.376;2022-09-16T14:24:16;14.70;99.90
51793;DHT22;37850;53.178;6.376;2022-09-16T14:26:52;14.70;99.90
51793;DHT22;37850;53.178;6.376;2022-09-16T14:29:19;14.70;99.90
51793;DHT22;37850;53.178;6.376;2022-09-16T14:31:45;14.80;99.90
51793;DHT22;37850;53.178;6.376;2022-09-16T14:34:27;14.70;99.90
51793;DHT22;37850;53.178;6.376;2022-09-16T14:36:55;14.70;99.90
51793;DHT22;37850;53.178;6.376;2022-09-16T14:39:22;14.60;99.90
51793;DHT22;37850;53.178;6.376;2022-09-16T14:41:57;14.60;99.90
51793;DHT22;37850;53.178;6.376;2022-09-16T14:44:38;14.50;99.90
51793;DHT22;37850;53.178;6.376;2022-09-16T14:47:22;14.40;99.90
51793;DHT22;37850;53.178;6.376;2022-09-16T14:49:51;14.40;99.90
51793;DHT22;37850;53.178;6.376;2022-09-16T14:52:23;14.30;99.90
51793;DHT22;37850;53.178;6.376;2022-09-16T14:54:49;14.30;99.90
51793;DHT22;37850;53.178;6.376;2022-09-16T14:57:24;14.20;99.90
51793;DHT22;37850;53.178;6.376;2022-09-16T14:59:53;14.20;99.90
51793;DHT22;37850;53.178;6.376;2022-09-16T15:02:35;14.20;99.90
51793;DHT22;37850;53.178;6.376;2022-09-16T15:05:33;14.20;99.90
51793;DHT22;37850;53.178;6.376;2022-09-16T15:08:14;14.10;99.90
51793;DHT22;37850;53.178;6.376;2022-09-16T15:10:51;14.10;99.90
51793;DHT22;37850;53.178;6.376;2022-09-16T15:13:25;14.10;99.90
51793;DHT22;37850;53.178;6.376;2022-09-16T15:15:57;14.00;99.90
51793;DHT22;37850;53.178;6.376;2022-09-16T15:18:35;14.20;99.90
51793;DHT22;37850;53.178;6.376;2022-09-16T15:21:21;13.90;99.90
51793;DHT22;37850;53.178;6.376;2022-09-16T15:23:50;13.90;99.90
51793;DHT22;37850;53.178;6.376;2022-09-16T15:31:45;13.70;99.90
51793;DHT22;37850;53.178;6.376;2022-09-16T15:34:21;13.70;99.90
51793;DHT22;37850;53.178;6.376;2022-09-16T15:36:53;13.70;99.90
51793;DHT22;37850;53.178;6.376;2022-09-16T15:44:33;13.70;99.90
51793;DHT22;37850;53.178;6.376;2022-09-16T15:46:59;13.70;99.90
51793;DHT22;37850;53.178;6.376;2022-09-16T15:49:27;13.70;99.90
51793;DHT22;37850;53.178;6.376;2022-09-16T15:52:02;13.70;99.90
51793;DHT22;37850;53.178;6.376;2022-09-16T15:54:45;13.60;99.90
51793;DHT22;37850;53.178;6.376;2022-09-16T16:00:11;13.60;99.90
51793;DHT22;37850;53.178;6.376;2022-09-16T16:02:56;13.50;99.90
51793;DHT22;37850;53.178;6.376;2022-09-16T16:05:27;13.50;99.90
51793;DHT22;37850;53.178;6.376;2022-09-16T16:08:02;13.50;99.90
51793;DHT22;37850;53.178;6.376;2022-09-16T16:10:30;13.50;99.90
51793;DHT22;37850;53.178;6.376;2022-09-16T16:12:58;13.50;99.90
51793;DHT22;37850;53.178;6.376;2022-09-16T16:15:27;13.60;99.90
51793;DHT22;37850;53.178;6.376;2022-09-16T16:17:56;13.60;99.90
51793;DHT22;37850;53.178;6.376;2022-09-16T16:20:22;13.60;99.90
51793;DHT22;37850;53.178;6.376;2022-09-16T16:22:49;13.60;99.90
51793;DHT22;37850;53.178;6.376;2022-09-16T16:25:15;13.70;99.90
51793;DHT22;37850;53.178;6.376;2022-09-16T16:27:41;13.60;99.90
51793;DHT22;37850;53.178;6.376;2022-09-16T16:30:08;13.70;99.90
51793;DHT22;37850;53.178;6.376;2022-09-16T16:32:34;13.70;99.90
51793;DHT22;37850;53.178;6.376;2022-09-16T16:35:00;13.70;99.90
51793;DHT22;37850;53.178;6.376;2022-09-16T16:37:26;13.60;99.90
51793;DHT22;37850;53.178;6.376;2022-09-16T16:39:53;13.60;99.90
51793;DHT22;37850;53.178;6.376;2022-09-16T16:42:19;13.50;99.90
51793;DHT22;37850;53.178;6.376;2022-09-16T16:44:45;13.30;99.90
51793;DHT22;37850;53.178;6.376;2022-09-16T16:47:11;13.30;99.90
51793;DHT22;37850;53.178;6.376;2022-09-16T16:49:37;13.20;99.90
51793;DHT22;37850;53.178;6.376;2022-09-16T16:52:04;13.20;99.90
51793;DHT22;37850;53.178;6.376;2022-09-16T16:54:33;13.10;99.90
51793;DHT22;37850;53.178;6.376;2022-09-16T16:57:00;13.00;99.90
51793;DHT22;37850;53.178;6.376;2022-09-16T16:59:26;13.00;99.90
51793;DHT22;37850;53.178;6.376;2022-09-16T17:01:54;13.00;99.90
51793;DHT22;37850;53.178;6.376;2022-09-16T17:04:21;13.00;99.90
51793;DHT22;37850;53.178;6.376;2022-09-16T17:06:47;13.00;99.90
51793;DHT22;37850;53.178;6.376;2022-09-16T17:09:13;13.00;99.90
51793;DHT22;37850;53.178;6.376;2022-09-16T17:11:56;13.00;99.90
51793;DHT22;37850;53.178;6.376;2022-09-16T17:14:25;13.00;99.90
51793;DHT22;37850;53.178;6.376;2022-09-16T17:16:51;13.00;99.90
51793;DHT22;37850;53.178;6.376;2022-09-16T17:19:20;13.10;99.90
51793;DHT22;37850;53.178;6.376;2022-09-16T17:21:47;13.00;99.90
51793;DHT22;37850;53.178;6.376;2022-09-16T17:24:15;13.00;99.90
51793;DHT22;37850;53.178;6.376;2022-09-16T17:26:41;13.00;99.90
51793;DHT22;37850;53.178;6.376;2022-09-16T17:29:07;13.20;99.90
51793;DHT22;37850;53.178;6.376;2022-09-16T17:31:33;13.00;99.90
51793;DHT22;37850;53.178;6.376;2022-09-16T17:34:02;13.00;99.90
51793;DHT22;37850;53.178;6.376;2022-09-16T17:36:38;13.00;99.90
51793;DHT22;37850;53.178;6.376;2022-09-16T17:39:10;12.90;99.90
51793;DHT22;37850;53.178;6.376;2022-09-16T17:41:38;13.10;99.90
51793;DHT22;37850;53.178;6.376;2022-09-16T17:44:05;12.80;99.90
51793;DHT22;37850;53.178;6.376;2022-09-16T17:46:32;12.80;99.90
51793;DHT22;37850;53.178;6.376;2022-09-16T17:48:59;12.80;99.90
51793;DHT22;37850;53.178;6.376;2022-09-16T17:51:25;12.70;99.90
51793;DHT22;37850;53.178;6.376;2022-09-16T17:53:51;12.70;99.90
51793;DHT22;37850;53.178;6.376;2022-09-16T17:56:17;12.70;99.90
51793;DHT22;37850;53.178;6.376;2022-09-16T17:58:45;12.70;99.90
51793;DHT22;37850;53.178;6.376;2022-09-16T18:01:18;12.70;99.90
51793;DHT22;37850;53.178;6.376;2022-09-16T18:03:47;12.60;99.90
51793;DHT22;37850;53.178;6.376;2022-09-16T18:06:25;12.60;99.90
51793;DHT22;37850;53.178;6.376;2022-09-16T18:08:53;12.50;99.90
51793;DHT22;37850;53.178;6.376;2022-09-16T18:11:20;12.60;99.90
51793;DHT22;37850;53.178;6.376;2022-09-16T18:13:46;12.60;99.90
51793;DHT22;37850;53.178;6.376;2022-09-16T18:16:17;12.60;99.90
51793;DHT22;37850;53.178;6.376;2022-09-16T18:18:45;12.60;99.90
51793;DHT22;37850;53.178;6.376;2022-09-16T18:21:13;12.60;99.90
51793;DHT22;37850;53.178;6.376;2022-09-16T18:23:43;12.60;99.90
51793;DHT22;37850;53.178;6.376;2022-09-16T18:26:11;12.60;99.90
51793;DHT22;37850;53.178;6.376;2022-09-16T18:28:39;12.60;99.90
51793;DHT22;37850;53.178;6.376;2022-09-16T18:31:07;12.60;99.90
51793;DHT22;37850;53.178;6.376;2022-09-16T18:33:33;12.60;99.90
51793;DHT22;37850;53.178;6.376;2022-09-16T18:36:00;12.60;99.90
51793;DHT22;37850;53.178;6.376;2022-09-16T18:38:27;12.60;99.90
51793;DHT22;37850;53.178;6.376;2022-09-16T18:41:07;12.60;99.90
51793;DHT22;37850;53.178;6.376;2022-09-16T18:43:34;12.60;99.90
51793;DHT22;37850;53.178;6.376;2022-09-16T18:46:17;12.50;99.90
51793;DHT22;37850;53.178;6.376;2022-09-16T18:48:45;12.50;99.90